sensor_id;sensor_type;location;lat;lon;timestamp;P1;durP1;ratioP1;P2;durP2;ratioP2
65581;SDS011;52231;40.090;18.348;2023-04-25T00:02:04;8.32;;;1.90;;
65581;SDS011;52231;40.090;18.348;2023-04-25T00:07:02;9.85;;;1.90;;
65581;SDS011;52231;40.090;18.348;2023-04-25T00:09:31;9.15;;;2.10;;
65581;SDS011;52231;40.090;18.348;2023-04-25T00:12:00;9.60;;;2.50;;
65581;SDS011;52231;40.090;18.348;2023-04-25T00:14:29;8.15;;;2.10;;
65581;SDS011;52231;40.090;18.348;2023-04-25T00:16:57;6.40;;;2.40;;
65581;SDS011;52231;40.090;18.348;2023-04-25T00:21:55;6.30;;;1.85;;
65581;SDS011;52231;40.090;18.348;2023-04-25T00:24:23;5.05;;;1.90;;
65581;SDS011;52231;40.090;18.348;2023-04-25T00:26:51;6.10;;;2.05;;
65581;SDS011;52231;40.090;18.348;2023-04-25T00:29:20;5.25;;;2.00;;
65581;SDS011;52231;40.090;18.348;2023-04-25T00:31:48;5.13;;;1.90;;
65581;SDS011;52231;40.090;18.348;2023-04-25T00:34:16;10.02;;;2.42;;
65581;SDS011;52231;40.090;18.348;2023-04-25T00:36:44;8.40;;;2.10;;
65581;SDS011;52231;40.090;18.348;2023-04-25T00:39:12;7.75;;;2.78;;
65581;SDS011;52231;40.090;18.348;2023-04-25T00:41:41;8.35;;;2.45;;
65581;SDS011;52231;40.090;18.348;2023-04-25T00:44:09;7.15;;;1.88;;
65581;SDS011;52231;40.090;18.348;2023-04-25T00:46:39;7.97;;;2.38;;
65581;SDS011;52231;40.090;18.348;2023-04-25T00:49:07;7.78;;;2.50;;
65581;SDS011;52231;40.090;18.348;2023-04-25T00:51:35;9.63;;;2.38;;
65581;SDS011;52231;40.090;18.348;2023-04-25T00:54:05;7.47;;;2.22;;
65581;SDS011;52231;40.090;18.348;2023-04-25T00:56:33;10.07;;;2.58;;
65581;SDS011;52231;40.090;18.348;2023-04-25T00:59:01;7.10;;;2.53;;
65581;SDS011;52231;40.090;18.348;2023-04-25T01:01:29;9.73;;;2.40;;
65581;SDS011;52231;40.090;18.348;2023-04-25T01:03:59;8.32;;;2.38;;
65581;SDS011;52231;40.090;18.348;2023-04-25T01:06:28;9.07;;;2.30;;
65581;SDS011;52231;40.090;18.348;2023-04-25T01:08:56;8.07;;;2.60;;
65581;SDS011;52231;40.090;18.348;2023-04-25T01:11:25;9.55;;;2.22;;
65581;SDS011;52231;40.090;18.348;2023-04-25T01:13:53;5.03;;;2.03;;
65581;SDS011;52231;40.090;18.348;2023-04-25T01:16:21;9.43;;;2.50;;
65581;SDS011;52231;40.090;18.348;2023-04-25T01:18:51;7.05;;;2.53;;
65581;SDS011;52231;40.090;18.348;2023-04-25T01:21:19;9.77;;;2.95;;
65581;SDS011;52231;40.090;18.348;2023-04-25T01:23:48;7.18;;;2.22;;
65581;SDS011;52231;40.090;18.348;2023-04-25T01:26:17;8.98;;;2.35;;
65581;SDS011;52231;40.090;18.348;2023-04-25T01:28:45;8.95;;;2.17;;
65581;SDS011;52231;40.090;18.348;2023-04-25T01:31:14;9.32;;;2.28;;
65581;SDS011;52231;40.090;18.348;2023-04-25T01:33:44;10.93;;;2.47;;
65581;SDS011;52231;40.090;18.348;2023-04-25T01:36:12;13.48;;;2.20;;
65581;SDS011;52231;40.090;18.348;2023-04-25T01:38:44;8.48;;;2.60;;
65581;SDS011;52231;40.090;18.348;2023-04-25T01:41:15;9.68;;;2.70;;
65581;SDS011;52231;40.090;18.348;2023-04-25T01:43:45;11.75;;;2.55;;
65581;SDS011;52231;40.090;18.348;2023-04-25T01:46:13;7.88;;;2.40;;
65581;SDS011;52231;40.090;18.348;2023-04-25T01:48:41;7.45;;;2.83;;
65581;SDS011;52231;40.090;18.348;2023-04-25T01:51:10;8.18;;;2.67;;
65581;SDS011;52231;40.090;18.348;2023-04-25T01:53:39;9.27;;;2.63;;
65581;SDS011;52231;40.090;18.348;2023-04-25T01:56:08;10.30;;;2.78;;
65581;SDS011;52231;40.090;18.348;2023-04-25T01:58:36;8.15;;;2.50;;
65581;SDS011;52231;40.090;18.348;2023-04-25T02:01:20;11.13;;;2.58;;
65581;SDS011;52231;40.090;18.348;2023-04-25T02:04:03;10.05;;;2.60;;
65581;SDS011;52231;40.090;18.348;2023-04-25T02:06:35;8.23;;;2.58;;
65581;SDS011;52231;40.090;18.348;2023-04-25T02:09:03;10.27;;;2.50;;
65581;SDS011;52231;40.090;18.348;2023-04-25T02:11:32;7.15;;;2.53;;
65581;SDS011;52231;40.090;18.348;2023-04-25T02:14:23;6.47;;;2.30;;
65581;SDS011;52231;40.090;18.348;2023-04-25T02:17:14;6.55;;;2.40;;
65581;SDS011;52231;40.090;18.348;2023-04-25T02:19:45;8.77;;;2.50;;
65581;SDS011;52231;40.090;18.348;2023-04-25T02:22:13;6.97;;;2.55;;
65581;SDS011;52231;40.090;18.348;2023-04-25T02:24:41;7.40;;;2.20;;
65581;SDS011;52231;40.090;18.348;2023-04-25T02:27:09;8.85;;;2.72;;
65581;SDS011;52231;40.090;18.348;2023-04-25T02:29:37;11.23;;;2.70;;
65581;SDS011;52231;40.090;18.348;2023-04-25T02:32:05;8.75;;;2.78;;
65581;SDS011;52231;40.090;18.348;2023-04-25T02:34:33;8.57;;;2.53;;
65581;SDS011;52231;40.090;18.348;2023-04-25T02:37:01;7.93;;;2.30;;
65581;SDS011;52231;40.090;18.348;2023-04-25T02:39:30;9.75;;;2.50;;
65581;SDS011;52231;40.090;18.348;2023-04-25T02:41:58;7.10;;;2.47;;
65581;SDS011;52231;40.090;18.348;2023-04-25T02:44:29;9.48;;;2.50;;
65581;SDS011;52231;40.090;18.348;2023-04-25T02:46:57;12.70;;;2.80;;
65581;SDS011;52231;40.090;18.348;2023-04-25T02:49:25;6.53;;;2.25;;
65581;SDS011;52231;40.090;18.348;2023-04-25T02:51:53;10.95;;;3.03;;
65581;SDS011;52231;40.090;18.348;2023-04-25T02:54:22;6.22;;;2.58;;
65581;SDS011;52231;40.090;18.348;2023-04-25T02:56:50;8.32;;;2.53;;
65581;SDS011;52231;40.090;18.348;2023-04-25T02:59:24;10.07;;;2.50;;
65581;SDS011;52231;40.090;18.348;2023-04-25T03:01:52;8.65;;;2.60;;
65581;SDS011;52231;40.090;18.348;2023-04-25T03:06:51;9.55;;;2.35;;
65581;SDS011;52231;40.090;18.348;2023-04-25T03:09:21;7.53;;;2.45;;
65581;SDS011;52231;40.090;18.348;2023-04-25T03:11:51;5.90;;;2.22;;
65581;SDS011;52231;40.090;18.348;2023-04-25T03:14:21;8.77;;;2.45;;
65581;SDS011;52231;40.090;18.348;2023-04-25T03:16:49;12.38;;;3.30;;
65581;SDS011;52231;40.090;18.348;2023-04-25T03:19:17;7.75;;;2.38;;
65581;SDS011;52231;40.090;18.348;2023-04-25T03:21:45;7.80;;;2.30;;
65581;SDS011;52231;40.090;18.348;2023-04-25T03:24:13;11.85;;;2.63;;
65581;SDS011;52231;40.090;18.348;2023-04-25T03:29:10;10.43;;;2.30;;
65581;SDS011;52231;40.090;18.348;2023-04-25T03:31:41;9.82;;;2.65;;
65581;SDS011;52231;40.090;18.348;2023-04-25T03:34:09;5.30;;;2.25;;
65581;SDS011;52231;40.090;18.348;2023-04-25T03:36:37;10.90;;;2.20;;
65581;SDS011;52231;40.090;18.348;2023-04-25T03:39:07;12.93;;;2.38;;
65581;SDS011;52231;40.090;18.348;2023-04-25T03:41:36;6.47;;;2.30;;
65581;SDS011;52231;40.090;18.348;2023-04-25T03:44:11;8.02;;;2.08;;
65581;SDS011;52231;40.090;18.348;2023-04-25T03:46:39;10.95;;;2.42;;
65581;SDS011;52231;40.090;18.348;2023-04-25T03:49:08;6.47;;;2.22;;
65581;SDS011;52231;40.090;18.348;2023-04-25T03:51:56;6.93;;;2.20;;
65581;SDS011;52231;40.090;18.348;2023-04-25T03:57:02;8.30;;;2.65;;
65581;SDS011;52231;40.090;18.348;2023-04-25T03:59:34;8.60;;;2.33;;
65581;SDS011;52231;40.090;18.348;2023-04-25T04:02:03;7.15;;;2.15;;
65581;SDS011;52231;40.090;18.348;2023-04-25T04:04:33;8.90;;;2.55;;
65581;SDS011;52231;40.090;18.348;2023-04-25T04:07:01;7.03;;;2.30;;
65581;SDS011;52231;40.090;18.348;2023-04-25T04:09:34;8.15;;;2.47;;
65581;SDS011;52231;40.090;18.348;2023-04-25T04:12:07;9.95;;;2.53;;
65581;SDS011;52231;40.090;18.348;2023-04-25T04:14:37;10.85;;;2.65;;
65581;SDS011;52231;40.090;18.348;2023-04-25T04:17:06;13.40;;;3.75;;
65581;SDS011;52231;40.090;18.348;2023-04-25T04:22:17;10.98;;;2.83;;
65581;SDS011;52231;40.090;18.348;2023-04-25T04:24:47;6.45;;;2.60;;
65581;SDS011;52231;40.090;18.348;2023-04-25T04:27:21;9.25;;;2.55;;
65581;SDS011;52231;40.090;18.348;2023-04-25T04:30:08;9.82;;;2.78;;
65581;SDS011;52231;40.090;18.348;2023-04-25T04:32:46;9.15;;;2.70;;
65581;SDS011;52231;40.090;18.348;2023-04-25T04:35:16;4.88;;;2.22;;
65581;SDS011;52231;40.090;18.348;2023-04-25T04:40:14;7.63;;;2.40;;
65581;SDS011;52231;40.090;18.348;2023-04-25T04:43:01;8.15;;;2.60;;
65581;SDS011;52231;40.090;18.348;2023-04-25T04:45:53;8.80;;;3.00;;
65581;SDS011;52231;40.090;18.348;2023-04-25T04:48:49;10.27;;;2.38;;
65581;SDS011;52231;40.090;18.348;2023-04-25T04:51:27;9.20;;;2.35;;
65581;SDS011;52231;40.090;18.348;2023-04-25T04:54:08;8.18;;;2.22;;
65581;SDS011;52231;40.090;18.348;2023-04-25T04:56:50;9.77;;;2.50;;
65581;SDS011;52231;40.090;18.348;2023-04-25T04:59:26;12.70;;;2.60;;
65581;SDS011;52231;40.090;18.348;2023-04-25T05:02:12;8.00;;;1.95;;
65581;SDS011;52231;40.090;18.348;2023-04-25T05:05:16;6.85;;;2.28;;
65581;SDS011;52231;40.090;18.348;2023-04-25T05:08:12;6.97;;;2.35;;
65581;SDS011;52231;40.090;18.348;2023-04-25T05:10:51;8.02;;;2.67;;
65581;SDS011;52231;40.090;18.348;2023-04-25T05:13:31;9.70;;;2.55;;
65581;SDS011;52231;40.090;18.348;2023-04-25T05:16:08;9.40;;;2.28;;
65581;SDS011;52231;40.090;18.348;2023-04-25T05:18:55;6.78;;;2.30;;
65581;SDS011;52231;40.090;18.348;2023-04-25T05:21:41;6.30;;;1.92;;
65581;SDS011;52231;40.090;18.348;2023-04-25T05:24:25;9.75;;;2.20;;
65581;SDS011;52231;40.090;18.348;2023-04-25T05:27:16;8.55;;;2.15;;
65581;SDS011;52231;40.090;18.348;2023-04-25T05:30:04;5.93;;;2.00;;
65581;SDS011;52231;40.090;18.348;2023-04-25T05:32:51;7.55;;;2.05;;
65581;SDS011;52231;40.090;18.348;2023-04-25T05:37:49;7.35;;;2.13;;
65581;SDS011;52231;40.090;18.348;2023-04-25T05:40:21;8.55;;;2.00;;
65581;SDS011;52231;40.090;18.348;2023-04-25T05:42:57;7.68;;;2.22;;
65581;SDS011;52231;40.090;18.348;2023-04-25T05:45:42;7.82;;;2.05;;
65581;SDS011;52231;40.090;18.348;2023-04-25T05:48:33;7.28;;;1.85;;
65581;SDS011;52231;40.090;18.348;2023-04-25T05:51:15;5.78;;;1.80;;
65581;SDS011;52231;40.090;18.348;2023-04-25T05:53:51;6.97;;;1.85;;
65581;SDS011;52231;40.090;18.348;2023-04-25T05:56:22;5.07;;;1.73;;
65581;SDS011;52231;40.090;18.348;2023-04-25T05:58:52;8.30;;;1.98;;
65581;SDS011;52231;40.090;18.348;2023-04-25T06:01:22;5.57;;;1.70;;
65581;SDS011;52231;40.090;18.348;2023-04-25T06:03:50;6.68;;;1.98;;
65581;SDS011;52231;40.090;18.348;2023-04-25T06:06:22;6.60;;;1.98;;
65581;SDS011;52231;40.090;18.348;2023-04-25T06:08:50;4.90;;;1.52;;
65581;SDS011;52231;40.090;18.348;2023-04-25T06:11:18;7.20;;;1.80;;
65581;SDS011;52231;40.090;18.348;2023-04-25T06:13:47;4.32;;;1.60;;
65581;SDS011;52231;40.090;18.348;2023-04-25T06:16:16;7.22;;;1.80;;
65581;SDS011;52231;40.090;18.348;2023-04-25T06:18:45;6.07;;;1.63;;
65581;SDS011;52231;40.090;18.348;2023-04-25T06:21:13;6.97;;;1.95;;
65581;SDS011;52231;40.090;18.348;2023-04-25T06:23:41;8.10;;;2.70;;
65581;SDS011;52231;40.090;18.348;2023-04-25T06:26:12;11.73;;;2.55;;
65581;SDS011;52231;40.090;18.348;2023-04-25T06:28:43;8.63;;;1.90;;
65581;SDS011;52231;40.090;18.348;2023-04-25T06:31:11;6.40;;;1.58;;
65581;SDS011;52231;40.090;18.348;2023-04-25T06:33:42;7.82;;;1.90;;
65581;SDS011;52231;40.090;18.348;2023-04-25T06:36:10;7.63;;;2.22;;
65581;SDS011;52231;40.090;18.348;2023-04-25T06:38:39;5.82;;;1.40;;
65581;SDS011;52231;40.090;18.348;2023-04-25T06:41:09;6.93;;;1.98;;
65581;SDS011;52231;40.090;18.348;2023-04-25T06:43:38;7.00;;;1.50;;
65581;SDS011;52231;40.090;18.348;2023-04-25T06:46:30;6.00;;;2.20;;
65581;SDS011;52231;40.090;18.348;2023-04-25T06:48:59;7.07;;;1.60;;
65581;SDS011;52231;40.090;18.348;2023-04-25T06:51:28;6.00;;;1.73;;
65581;SDS011;52231;40.090;18.348;2023-04-25T06:53:57;5.30;;;1.63;;
65581;SDS011;52231;40.090;18.348;2023-04-25T06:56:38;6.07;;;1.77;;
65581;SDS011;52231;40.090;18.348;2023-04-25T06:59:12;6.13;;;1.42;;
65581;SDS011;52231;40.090;18.348;2023-04-25T07:01:43;4.70;;;1.50;;
65581;SDS011;52231;40.090;18.348;2023-04-25T07:04:16;5.05;;;1.33;;
65581;SDS011;52231;40.090;18.348;2023-04-25T07:06:50;3.85;;;1.25;;
65581;SDS011;52231;40.090;18.348;2023-04-25T07:09:23;8.18;;;1.70;;
65581;SDS011;52231;40.090;18.348;2023-04-25T07:11:52;5.55;;;1.30;;
65581;SDS011;52231;40.090;18.348;2023-04-25T07:14:20;4.80;;;1.40;;
65581;SDS011;52231;40.090;18.348;2023-04-25T07:19:17;4.75;;;1.40;;
65581;SDS011;52231;40.090;18.348;2023-04-25T07:21:45;8.07;;;1.95;;
65581;SDS011;52231;40.090;18.348;2023-04-25T07:24:15;6.88;;;1.65;;
65581;SDS011;52231;40.090;18.348;2023-04-25T07:26:46;4.05;;;1.30;;
65581;SDS011;52231;40.090;18.348;2023-04-25T07:29:22;6.50;;;1.92;;
65581;SDS011;52231;40.090;18.348;2023-04-25T07:31:50;5.43;;;1.88;;
65581;SDS011;52231;40.090;18.348;2023-04-25T07:34:20;3.25;;;1.40;;
65581;SDS011;52231;40.090;18.348;2023-04-25T07:36:48;5.13;;;1.50;;
65581;SDS011;52231;40.090;18.348;2023-04-25T07:39:17;4.90;;;1.35;;
65581;SDS011;52231;40.090;18.348;2023-04-25T07:44:19;9.10;;;1.70;;
65581;SDS011;52231;40.090;18.348;2023-04-25T07:46:47;6.00;;;1.45;;
65581;SDS011;52231;40.090;18.348;2023-04-25T07:51:44;4.90;;;1.30;;
65581;SDS011;52231;40.090;18.348;2023-04-25T07:54:15;4.03;;;1.25;;
65581;SDS011;52231;40.090;18.348;2023-04-25T07:56:49;3.35;;;1.05;;
65581;SDS011;52231;40.090;18.348;2023-04-25T07:59:19;8.93;;;1.73;;
65581;SDS011;52231;40.090;18.348;2023-04-25T08:01:48;4.40;;;1.20;;
65581;SDS011;52231;40.090;18.348;2023-04-25T08:04:18;4.55;;;1.15;;
65581;SDS011;52231;40.090;18.348;2023-04-25T08:06:52;3.80;;;1.40;;
65581;SDS011;52231;40.090;18.348;2023-04-25T08:09:28;3.55;;;1.13;;
65581;SDS011;52231;40.090;18.348;2023-04-25T08:12:03;5.40;;;1.38;;
65581;SDS011;52231;40.090;18.348;2023-04-25T08:14:33;4.35;;;1.25;;
65581;SDS011;52231;40.090;18.348;2023-04-25T08:17:05;6.25;;;1.30;;
65581;SDS011;52231;40.090;18.348;2023-04-25T08:19:39;6.45;;;1.52;;
65581;SDS011;52231;40.090;18.348;2023-04-25T08:22:24;5.35;;;1.40;;
65581;SDS011;52231;40.090;18.348;2023-04-25T08:25:06;4.38;;;1.27;;
65581;SDS011;52231;40.090;18.348;2023-04-25T08:27:34;4.30;;;1.48;;
65581;SDS011;52231;40.090;18.348;2023-04-25T08:30:03;5.18;;;1.55;;
65581;SDS011;52231;40.090;18.348;2023-04-25T08:32:33;3.55;;;1.30;;
65581;SDS011;52231;40.090;18.348;2023-04-25T08:35:30;4.30;;;1.60;;
65581;SDS011;52231;40.090;18.348;2023-04-25T08:38:00;6.00;;;1.25;;
65581;SDS011;52231;40.090;18.348;2023-04-25T08:40:29;5.80;;;1.35;;
65581;SDS011;52231;40.090;18.348;2023-04-25T08:43:06;6.18;;;1.30;;
65581;SDS011;52231;40.090;18.348;2023-04-25T08:45:40;7.88;;;1.48;;
65581;SDS011;52231;40.090;18.348;2023-04-25T08:48:15;5.32;;;1.33;;
65581;SDS011;52231;40.090;18.348;2023-04-25T08:50:52;4.97;;;1.45;;
65581;SDS011;52231;40.090;18.348;2023-04-25T08:53:25;4.75;;;1.40;;
65581;SDS011;52231;40.090;18.348;2023-04-25T08:56:02;5.38;;;1.95;;
65581;SDS011;52231;40.090;18.348;2023-04-25T08:58:35;11.18;;;5.05;;
65581;SDS011;52231;40.090;18.348;2023-04-25T09:01:07;5.38;;;1.60;;
65581;SDS011;52231;40.090;18.348;2023-04-25T09:03:44;9.20;;;2.03;;
65581;SDS011;52231;40.090;18.348;2023-04-25T09:06:15;8.85;;;2.30;;
65581;SDS011;52231;40.090;18.348;2023-04-25T09:08:45;9.55;;;2.60;;
65581;SDS011;52231;40.090;18.348;2023-04-25T09:11:13;5.03;;;1.83;;
65581;SDS011;52231;40.090;18.348;2023-04-25T09:13:42;8.60;;;2.53;;
65581;SDS011;52231;40.090;18.348;2023-04-25T09:16:26;10.73;;;2.95;;
65581;SDS011;52231;40.090;18.348;2023-04-25T09:19:04;4.57;;;1.75;;
65581;SDS011;52231;40.090;18.348;2023-04-25T09:21:34;7.28;;;2.28;;
65581;SDS011;52231;40.090;18.348;2023-04-25T09:24:02;5.85;;;1.88;;
65581;SDS011;52231;40.090;18.348;2023-04-25T09:26:31;5.70;;;1.52;;
65581;SDS011;52231;40.090;18.348;2023-04-25T09:29:04;5.10;;;1.50;;
65581;SDS011;52231;40.090;18.348;2023-04-25T09:31:37;5.47;;;1.50;;
65581;SDS011;52231;40.090;18.348;2023-04-25T09:34:08;8.52;;;2.20;;
65581;SDS011;52231;40.090;18.348;2023-04-25T09:36:43;4.70;;;1.50;;
65581;SDS011;52231;40.090;18.348;2023-04-25T09:39:38;8.60;;;1.67;;
65581;SDS011;52231;40.090;18.348;2023-04-25T09:42:13;6.53;;;1.65;;
65581;SDS011;52231;40.090;18.348;2023-04-25T09:44:44;6.30;;;1.50;;
65581;SDS011;52231;40.090;18.348;2023-04-25T09:47:15;6.00;;;1.50;;
65581;SDS011;52231;40.090;18.348;2023-04-25T09:52:20;4.93;;;1.80;;
65581;SDS011;52231;40.090;18.348;2023-04-25T09:55:07;6.05;;;1.80;;
65581;SDS011;52231;40.090;18.348;2023-04-25T09:57:35;6.72;;;1.80;;
65581;SDS011;52231;40.090;18.348;2023-04-25T10:00:08;6.53;;;1.90;;
65581;SDS011;52231;40.090;18.348;2023-04-25T10:02:42;7.20;;;1.55;;
65581;SDS011;52231;40.090;18.348;2023-04-25T10:05:47;4.07;;;1.70;;
65581;SDS011;52231;40.090;18.348;2023-04-25T10:08:17;7.22;;;1.67;;
65581;SDS011;52231;40.090;18.348;2023-04-25T10:10:47;7.13;;;2.00;;
65581;SDS011;52231;40.090;18.348;2023-04-25T10:13:18;4.15;;;1.60;;
65581;SDS011;52231;40.090;18.348;2023-04-25T10:15:47;4.80;;;1.60;;
65581;SDS011;52231;40.090;18.348;2023-04-25T10:18:16;6.43;;;1.83;;
65581;SDS011;52231;40.090;18.348;2023-04-25T10:20:46;6.18;;;1.60;;
65581;SDS011;52231;40.090;18.348;2023-04-25T10:23:14;10.25;;;2.60;;
65581;SDS011;52231;40.090;18.348;2023-04-25T10:25:44;8.68;;;2.25;;
65581;SDS011;52231;40.090;18.348;2023-04-25T10:28:12;8.60;;;2.00;;
65581;SDS011;52231;40.090;18.348;2023-04-25T10:33:40;5.65;;;1.40;;
65581;SDS011;52231;40.090;18.348;2023-04-25T10:36:20;6.63;;;1.60;;
65581;SDS011;52231;40.090;18.348;2023-04-25T10:38:50;9.00;;;1.77;;
65581;SDS011;52231;40.090;18.348;2023-04-25T10:41:21;5.45;;;1.42;;
65581;SDS011;52231;40.090;18.348;2023-04-25T10:43:58;6.28;;;1.90;;
65581;SDS011;52231;40.090;18.348;2023-04-25T10:46:29;3.92;;;1.60;;
65581;SDS011;52231;40.090;18.348;2023-04-25T10:48:59;5.00;;;1.90;;
65581;SDS011;52231;40.090;18.348;2023-04-25T10:51:32;8.48;;;2.00;;
65581;SDS011;52231;40.090;18.348;2023-04-25T10:54:09;2.70;;;1.20;;
65581;SDS011;52231;40.090;18.348;2023-04-25T10:56:40;3.85;;;1.27;;
65581;SDS011;52231;40.090;18.348;2023-04-25T10:59:12;5.18;;;1.38;;
65581;SDS011;52231;40.090;18.348;2023-04-25T11:01:43;5.63;;;1.63;;
65581;SDS011;52231;40.090;18.348;2023-04-25T11:04:20;7.85;;;2.13;;
65581;SDS011;52231;40.090;18.348;2023-04-25T11:07:17;5.10;;;1.38;;
65581;SDS011;52231;40.090;18.348;2023-04-25T11:10:01;7.10;;;1.70;;
65581;SDS011;52231;40.090;18.348;2023-04-25T11:12:31;7.68;;;1.67;;
65581;SDS011;52231;40.090;18.348;2023-04-25T11:15:00;7.97;;;1.80;;
65581;SDS011;52231;40.090;18.348;2023-04-25T11:17:30;8.13;;;1.77;;
65581;SDS011;52231;40.090;18.348;2023-04-25T11:19:59;4.32;;;1.80;;
65581;SDS011;52231;40.090;18.348;2023-04-25T11:22:28;7.30;;;1.55;;
65581;SDS011;52231;40.090;18.348;2023-04-25T11:24:57;7.15;;;1.90;;
65581;SDS011;52231;40.090;18.348;2023-04-25T11:27:25;5.72;;;1.45;;
65581;SDS011;52231;40.090;18.348;2023-04-25T11:29:53;5.55;;;1.55;;
65581;SDS011;52231;40.090;18.348;2023-04-25T11:32:21;4.82;;;1.40;;
65581;SDS011;52231;40.090;18.348;2023-04-25T11:34:52;6.40;;;1.48;;
65581;SDS011;52231;40.090;18.348;2023-04-25T11:37:21;7.30;;;1.70;;
65581;SDS011;52231;40.090;18.348;2023-04-25T11:39:49;6.18;;;1.80;;
65581;SDS011;52231;40.090;18.348;2023-04-25T11:42:18;7.53;;;2.30;;
65581;SDS011;52231;40.090;18.348;2023-04-25T11:44:47;5.82;;;1.60;;
65581;SDS011;52231;40.090;18.348;2023-04-25T11:47:15;4.78;;;1.40;;
65581;SDS011;52231;40.090;18.348;2023-04-25T11:49:44;4.13;;;1.45;;
65581;SDS011;52231;40.090;18.348;2023-04-25T11:54:40;4.00;;;1.35;;
65581;SDS011;52231;40.090;18.348;2023-04-25T11:57:08;7.00;;;1.60;;
65581;SDS011;52231;40.090;18.348;2023-04-25T11:59:36;5.47;;;1.30;;
65581;SDS011;52231;40.090;18.348;2023-04-25T12:02:04;6.32;;;1.75;;
65581;SDS011;52231;40.090;18.348;2023-04-25T12:04:34;4.43;;;1.63;;
65581;SDS011;52231;40.090;18.348;2023-04-25T12:07:03;6.90;;;1.67;;
65581;SDS011;52231;40.090;18.348;2023-04-25T12:09:32;5.97;;;1.65;;
65581;SDS011;52231;40.090;18.348;2023-04-25T12:12:01;4.93;;;1.50;;
65581;SDS011;52231;40.090;18.348;2023-04-25T12:14:31;5.43;;;1.30;;
65581;SDS011;52231;40.090;18.348;2023-04-25T12:17:01;4.63;;;1.40;;
65581;SDS011;52231;40.090;18.348;2023-04-25T12:19:32;3.78;;;1.33;;
65581;SDS011;52231;40.090;18.348;2023-04-25T12:22:02;6.72;;;1.40;;
65581;SDS011;52231;40.090;18.348;2023-04-25T12:24:46;7.13;;;1.98;;
65581;SDS011;52231;40.090;18.348;2023-04-25T12:27:15;3.45;;;1.20;;
65581;SDS011;52231;40.090;18.348;2023-04-25T12:32:22;5.80;;;1.50;;
65581;SDS011;52231;40.090;18.348;2023-04-25T12:34:50;5.50;;;1.73;;
65581;SDS011;52231;40.090;18.348;2023-04-25T12:37:18;6.38;;;1.73;;
65581;SDS011;52231;40.090;18.348;2023-04-25T12:39:46;4.55;;;1.48;;
65581;SDS011;52231;40.090;18.348;2023-04-25T12:42:15;5.10;;;1.67;;
65581;SDS011;52231;40.090;18.348;2023-04-25T12:44:43;4.75;;;1.40;;
65581;SDS011;52231;40.090;18.348;2023-04-25T12:47:12;6.00;;;1.60;;
65581;SDS011;52231;40.090;18.348;2023-04-25T12:49:40;6.35;;;1.50;;
65581;SDS011;52231;40.090;18.348;2023-04-25T12:52:08;11.63;;;2.72;;
65581;SDS011;52231;40.090;18.348;2023-04-25T12:54:37;8.30;;;2.33;;
65581;SDS011;52231;40.090;18.348;2023-04-25T12:57:06;9.90;;;3.00;;
65581;SDS011;52231;40.090;18.348;2023-04-25T12:59:35;5.68;;;1.40;;
65581;SDS011;52231;40.090;18.348;2023-04-25T13:02:03;6.05;;;1.45;;
65581;SDS011;52231;40.090;18.348;2023-04-25T13:04:32;4.63;;;1.50;;
65581;SDS011;52231;40.090;18.348;2023-04-25T13:07:00;4.72;;;1.80;;
65581;SDS011;52231;40.090;18.348;2023-04-25T13:09:28;6.55;;;1.52;;
65581;SDS011;52231;40.090;18.348;2023-04-25T13:11:56;5.88;;;1.40;;
65581;SDS011;52231;40.090;18.348;2023-04-25T13:14:25;4.80;;;1.40;;
65581;SDS011;52231;40.090;18.348;2023-04-25T13:16:53;6.05;;;1.50;;
65581;SDS011;52231;40.090;18.348;2023-04-25T13:19:22;6.63;;;1.80;;
65581;SDS011;52231;40.090;18.348;2023-04-25T13:24:18;5.30;;;1.30;;
65581;SDS011;52231;40.090;18.348;2023-04-25T13:26:46;4.45;;;1.60;;
65581;SDS011;52231;40.090;18.348;2023-04-25T13:29:14;7.18;;;1.40;;
65581;SDS011;52231;40.090;18.348;2023-04-25T13:31:42;8.75;;;1.75;;
65581;SDS011;52231;40.090;18.348;2023-04-25T13:34:11;5.35;;;1.52;;
65581;SDS011;52231;40.090;18.348;2023-04-25T13:36:39;4.60;;;1.40;;
65581;SDS011;52231;40.090;18.348;2023-04-25T13:39:07;7.72;;;1.65;;
65581;SDS011;52231;40.090;18.348;2023-04-25T13:41:36;5.97;;;1.65;;
65581;SDS011;52231;40.090;18.348;2023-04-25T13:44:04;4.78;;;1.20;;
65581;SDS011;52231;40.090;18.348;2023-04-25T13:46:32;6.22;;;1.48;;
65581;SDS011;52231;40.090;18.348;2023-04-25T13:49:11;3.63;;;1.40;;
65581;SDS011;52231;40.090;18.348;2023-04-25T13:51:40;4.22;;;1.48;;
65581;SDS011;52231;40.090;18.348;2023-04-25T13:54:09;7.38;;;1.48;;
65581;SDS011;52231;40.090;18.348;2023-04-25T13:56:37;8.40;;;1.60;;
65581;SDS011;52231;40.090;18.348;2023-04-25T13:59:05;5.70;;;1.42;;
65581;SDS011;52231;40.090;18.348;2023-04-25T14:01:34;5.75;;;1.48;;
65581;SDS011;52231;40.090;18.348;2023-04-25T14:04:03;6.35;;;1.60;;
65581;SDS011;52231;40.090;18.348;2023-04-25T14:06:32;6.75;;;1.70;;
65581;SDS011;52231;40.090;18.348;2023-04-25T14:09:00;6.78;;;1.50;;
65581;SDS011;52231;40.090;18.348;2023-04-25T14:11:29;4.60;;;1.40;;
65581;SDS011;52231;40.090;18.348;2023-04-25T14:13:57;8.15;;;1.35;;
65581;SDS011;52231;40.090;18.348;2023-04-25T14:16:25;5.57;;;1.58;;
65581;SDS011;52231;40.090;18.348;2023-04-25T14:21:21;8.90;;;1.50;;
65581;SDS011;52231;40.090;18.348;2023-04-25T14:23:50;5.75;;;1.50;;
65581;SDS011;52231;40.090;18.348;2023-04-25T14:26:18;4.88;;;1.45;;
65581;SDS011;52231;40.090;18.348;2023-04-25T14:28:46;6.30;;;1.70;;
65581;SDS011;52231;40.090;18.348;2023-04-25T14:31:14;5.10;;;1.40;;
65581;SDS011;52231;40.090;18.348;2023-04-25T14:33:43;3.35;;;1.30;;
65581;SDS011;52231;40.090;18.348;2023-04-25T14:38:39;7.90;;;1.52;;
65581;SDS011;52231;40.090;18.348;2023-04-25T14:41:07;6.97;;;1.42;;
65581;SDS011;52231;40.090;18.348;2023-04-25T14:46:04;8.50;;;1.48;;
65581;SDS011;52231;40.090;18.348;2023-04-25T14:51:00;5.82;;;1.63;;
65581;SDS011;52231;40.090;18.348;2023-04-25T14:53:28;7.97;;;1.83;;
65581;SDS011;52231;40.090;18.348;2023-04-25T14:55:58;7.60;;;1.65;;
65581;SDS011;52231;40.090;18.348;2023-04-25T14:58:27;7.00;;;1.40;;
65581;SDS011;52231;40.090;18.348;2023-04-25T15:00:55;6.15;;;1.52;;
65581;SDS011;52231;40.090;18.348;2023-04-25T15:05:51;8.00;;;1.70;;
65581;SDS011;52231;40.090;18.348;2023-04-25T15:08:22;10.80;;;1.80;;
65581;SDS011;52231;40.090;18.348;2023-04-25T15:10:50;6.18;;;1.70;;
65581;SDS011;52231;40.090;18.348;2023-04-25T15:13:18;7.03;;;1.60;;
65581;SDS011;52231;40.090;18.348;2023-04-25T15:15:46;7.38;;;1.73;;
65581;SDS011;52231;40.090;18.348;2023-04-25T15:18:19;6.07;;;1.60;;
65581;SDS011;52231;40.090;18.348;2023-04-25T15:20:51;8.65;;;1.50;;
65581;SDS011;52231;40.090;18.348;2023-04-25T15:23:20;7.47;;;1.60;;
65581;SDS011;52231;40.090;18.348;2023-04-25T15:25:49;7.47;;;2.08;;
65581;SDS011;52231;40.090;18.348;2023-04-25T15:28:19;8.63;;;1.60;;
65581;SDS011;52231;40.090;18.348;2023-04-25T15:30:48;8.25;;;1.70;;
65581;SDS011;52231;40.090;18.348;2023-04-25T15:33:17;7.30;;;1.40;;
65581;SDS011;52231;40.090;18.348;2023-04-25T15:35:48;7.13;;;2.20;;
65581;SDS011;52231;40.090;18.348;2023-04-25T15:38:19;7.80;;;1.70;;
65581;SDS011;52231;40.090;18.348;2023-04-25T15:40:47;6.53;;;1.80;;
65581;SDS011;52231;40.090;18.348;2023-04-25T15:43:15;7.97;;;1.88;;
65581;SDS011;52231;40.090;18.348;2023-04-25T15:45:44;9.25;;;1.80;;
65581;SDS011;52231;40.090;18.348;2023-04-25T15:48:12;9.50;;;1.58;;
65581;SDS011;52231;40.090;18.348;2023-04-25T15:50:40;6.13;;;1.80;;
65581;SDS011;52231;40.090;18.348;2023-04-25T15:53:09;10.10;;;1.88;;